Hlavní strana
METAR-TAF:

METAR-TAF

Letiště :

Magnitogorsk, Rusko

zeměpisná šířka: 53-23-36N, zeměpisná délka: 058-45-24E, výška: 436 m

Aktuální stav počasí

Zpráva byla vytvořena před 44 minutami, v 00:30 UTC
Jihozápadní vítr 6 kt
Teplota 17°C
Vlhkost vzduchu 72%
Tlak 1011 hPa
Viditelnost 10 km a více
Skoro jasno ve výšce 4000 ft, Cumulonimbus.

METAR: USCM 220030Z 23003MPS 9999 FEW040CB 17/12 Q1011 R18/090065 NOSIG RMK QFE721

Čas: 06:14 (01:14 UTC)

Předpověď počasí

Zpráva byla vytvořena před 2 hodinami a 14 minutami, v 23:00 UTC
Předpověď platná od 22 v 00 UTC do 22 v 09 UTC
Západní vítr 6 kt s nárazy do 16 kt
Viditelnost 10 km a více
Oblačno až skoro zataženo ve výšce 5000 ft, Cumulonimbus.
Dočasný
od 22 v 00 UTC do 22 v 04 UTC
Viditelnost: 3100 m
Oblačno až skoro zataženo ve výšce 1100 ft, Cumulonimbus.
kouřmo
Dočasný
od 22 v 04 UTC do 22 v 09 UTC
Západní vítr 19 kt

TAF: USCM 212300Z 2200/2209 28003G08MPS 9999 BKN050CB TEMPO 2200/2204 3100 BR BKN011CB TEMPO 2204/2209 28010MPS

Stav a předpovědi počasí z více než 4 000 letišť (zprávy METAR a TAF).

Červené a žluté tečky na mapě představují dostupné meteorologické stanice.

Když kurzor umístíte na tečku, zobrazí se název stanice.

Pak kliknutím zobrazíte stav a předpověď počasí.

Chcete-li změnit mapu, kliknutím na zelené tlačítko se znaménkem +mapu přiblížíte, kliknutím na zelené tlačítko se znaménkem – mapu oddálíte a kliknutím na zelené šipky přejdete na sousední mapy.


METAR-TAF: